sensor_id;sensor_type;location;lat;lon;timestamp;P1;durP1;ratioP1;P2;durP2;ratioP2
3465;SDS011;1747;48.884;9.160;2023-01-10T00:00:20;0.50;;;0.40;;
3465;SDS011;1747;48.884;9.160;2023-01-10T00:02:47;0.57;;;0.40;;
3465;SDS011;1747;48.884;9.160;2023-01-10T00:05:14;1.00;;;0.55;;
3465;SDS011;1747;48.884;9.160;2023-01-10T00:07:41;0.55;;;0.55;;
3465;SDS011;1747;48.884;9.160;2023-01-10T00:10:09;1.20;;;0.60;;
3465;SDS011;1747;48.884;9.160;2023-01-10T00:12:36;0.80;;;0.68;;
3465;SDS011;1747;48.884;9.160;2023-01-10T00:15:22;1.15;;;0.80;;
3465;SDS011;1747;48.884;9.160;2023-01-10T00:17:49;1.58;;;0.90;;
3465;SDS011;1747;48.884;9.160;2023-01-10T00:20:16;1.58;;;0.80;;
3465;SDS011;1747;48.884;9.160;2023-01-10T00:22:43;2.00;;;1.27;;
3465;SDS011;1747;48.884;9.160;2023-01-10T00:25:10;1.42;;;1.27;;
3465;SDS011;1747;48.884;9.160;2023-01-10T00:27:37;3.53;;;1.30;;
3465;SDS011;1747;48.884;9.160;2023-01-10T00:30:05;2.55;;;1.23;;
3465;SDS011;1747;48.884;9.160;2023-01-10T00:32:40;1.20;;;0.98;;
3465;SDS011;1747;48.884;9.160;2023-01-10T00:35:07;2.00;;;1.20;;
3465;SDS011;1747;48.884;9.160;2023-01-10T00:37:35;1.60;;;1.30;;
3465;SDS011;1747;48.884;9.160;2023-01-10T00:40:02;2.38;;;1.65;;
3465;SDS011;1747;48.884;9.160;2023-01-10T00:42:32;1.70;;;1.10;;
3465;SDS011;1747;48.884;9.160;2023-01-10T00:45:16;1.67;;;1.08;;
3465;SDS011;1747;48.884;9.160;2023-01-10T00:47:46;2.08;;;0.98;;
3465;SDS011;1747;48.884;9.160;2023-01-10T00:50:13;1.88;;;1.13;;
3465;SDS011;1747;48.884;9.160;2023-01-10T00:52:40;2.78;;;1.13;;
3465;SDS011;1747;48.884;9.160;2023-01-10T00:55:07;1.45;;;1.10;;
3465;SDS011;1747;48.884;9.160;2023-01-10T00:57:34;1.45;;;1.10;;
3465;SDS011;1747;48.884;9.160;2023-01-10T01:00:01;4.00;;;1.30;;
3465;SDS011;1747;48.884;9.160;2023-01-10T01:02:31;2.92;;;1.30;;
3465;SDS011;1747;48.884;9.160;2023-01-10T01:04:59;1.58;;;1.00;;
3465;SDS011;1747;48.884;9.160;2023-01-10T01:07:26;2.63;;;1.30;;
3465;SDS011;1747;48.884;9.160;2023-01-10T01:09:53;2.10;;;1.42;;
3465;SDS011;1747;48.884;9.160;2023-01-10T01:12:37;2.35;;;1.33;;
3465;SDS011;1747;48.884;9.160;2023-01-10T01:15:04;2.60;;;1.50;;
3465;SDS011;1747;48.884;9.160;2023-01-10T01:17:32;2.55;;;1.42;;
3465;SDS011;1747;48.884;9.160;2023-01-10T01:20:00;3.03;;;1.48;;
3465;SDS011;1747;48.884;9.160;2023-01-10T01:22:27;2.00;;;1.30;;
3465;SDS011;1747;48.884;9.160;2023-01-10T01:24:54;1.85;;;1.20;;
3465;SDS011;1747;48.884;9.160;2023-01-10T01:27:20;2.55;;;1.20;;
3465;SDS011;1747;48.884;9.160;2023-01-10T01:29:47;2.33;;;1.10;;
3465;SDS011;1747;48.884;9.160;2023-01-10T01:32:14;1.20;;;1.10;;
3465;SDS011;1747;48.884;9.160;2023-01-10T01:34:41;1.23;;;1.10;;
3465;SDS011;1747;48.884;9.160;2023-01-10T01:37:09;1.63;;;1.20;;
3465;SDS011;1747;48.884;9.160;2023-01-10T01:39:36;1.33;;;1.10;;
3465;SDS011;1747;48.884;9.160;2023-01-10T01:42:03;2.78;;;1.00;;
3465;SDS011;1747;48.884;9.160;2023-01-10T01:44:31;1.13;;;0.80;;
3465;SDS011;1747;48.884;9.160;2023-01-10T01:47:01;0.77;;;0.70;;
3465;SDS011;1747;48.884;9.160;2023-01-10T01:49:32;0.82;;;0.77;;
3465;SDS011;1747;48.884;9.160;2023-01-10T01:52:04;1.95;;;0.80;;
3465;SDS011;1747;48.884;9.160;2023-01-10T01:54:35;1.00;;;0.75;;
3465;SDS011;1747;48.884;9.160;2023-01-10T01:57:03;1.92;;;0.73;;
3465;SDS011;1747;48.884;9.160;2023-01-10T01:59:36;0.98;;;0.68;;
3465;SDS011;1747;48.884;9.160;2023-01-10T02:02:07;0.80;;;0.68;;
3465;SDS011;1747;48.884;9.160;2023-01-10T02:04:39;0.60;;;0.60;;
3465;SDS011;1747;48.884;9.160;2023-01-10T02:07:11;1.27;;;0.70;;
3465;SDS011;1747;48.884;9.160;2023-01-10T02:09:40;0.77;;;0.70;;
3465;SDS011;1747;48.884;9.160;2023-01-10T02:12:11;1.27;;;0.70;;
3465;SDS011;1747;48.884;9.160;2023-01-10T02:14:41;2.90;;;0.90;;
3465;SDS011;1747;48.884;9.160;2023-01-10T02:17:09;2.80;;;0.70;;
3465;SDS011;1747;48.884;9.160;2023-01-10T02:19:39;1.88;;;0.55;;
3465;SDS011;1747;48.884;9.160;2023-01-10T02:22:29;1.80;;;1.30;;
3465;SDS011;1747;48.884;9.160;2023-01-10T02:28:30;2.05;;;1.02;;
3465;SDS011;1747;48.884;9.160;2023-01-10T02:31:30;2.20;;;0.70;;
3465;SDS011;1747;48.884;9.160;2023-01-10T02:34:10;2.78;;;1.00;;
3465;SDS011;1747;48.884;9.160;2023-01-10T02:36:43;1.58;;;0.80;;
3465;SDS011;1747;48.884;9.160;2023-01-10T02:39:17;1.00;;;0.80;;
3465;SDS011;1747;48.884;9.160;2023-01-10T02:41:49;0.85;;;0.70;;
3465;SDS011;1747;48.884;9.160;2023-01-10T02:44:23;2.17;;;0.85;;
3465;SDS011;1747;48.884;9.160;2023-01-10T02:46:56;2.25;;;1.02;;
3465;SDS011;1747;48.884;9.160;2023-01-10T02:49:24;1.27;;;1.05;;
3465;SDS011;1747;48.884;9.160;2023-01-10T02:51:51;2.33;;;1.20;;
3465;SDS011;1747;48.884;9.160;2023-01-10T02:54:18;1.27;;;0.88;;
3465;SDS011;1747;48.884;9.160;2023-01-10T02:56:52;2.10;;;0.85;;
3465;SDS011;1747;48.884;9.160;2023-01-10T02:59:40;1.88;;;0.60;;
3465;SDS011;1747;48.884;9.160;2023-01-10T03:02:32;1.00;;;0.85;;
3465;SDS011;1747;48.884;9.160;2023-01-10T03:05:16;2.08;;;0.80;;
3465;SDS011;1747;48.884;9.160;2023-01-10T03:07:52;0.65;;;0.65;;
3465;SDS011;1747;48.884;9.160;2023-01-10T03:10:27;1.27;;;0.82;;
3465;SDS011;1747;48.884;9.160;2023-01-10T03:12:59;1.55;;;0.80;;
3465;SDS011;1747;48.884;9.160;2023-01-10T03:15:30;2.95;;;1.00;;
3465;SDS011;1747;48.884;9.160;2023-01-10T03:18:02;2.72;;;1.08;;
3465;SDS011;1747;48.884;9.160;2023-01-10T03:20:34;5.65;;;1.58;;
3465;SDS011;1747;48.884;9.160;2023-01-10T03:23:04;3.53;;;1.15;;
3465;SDS011;1747;48.884;9.160;2023-01-10T03:25:32;2.55;;;0.90;;
3465;SDS011;1747;48.884;9.160;2023-01-10T03:28:03;1.60;;;1.20;;
3465;SDS011;1747;48.884;9.160;2023-01-10T03:30:34;2.90;;;1.38;;
3465;SDS011;1747;48.884;9.160;2023-01-10T03:33:06;1.40;;;1.10;;
3465;SDS011;1747;48.884;9.160;2023-01-10T03:35:37;2.38;;;1.33;;
3465;SDS011;1747;48.884;9.160;2023-01-10T03:38:12;5.15;;;1.40;;
3465;SDS011;1747;48.884;9.160;2023-01-10T03:40:46;2.80;;;1.25;;
3465;SDS011;1747;48.884;9.160;2023-01-10T03:43:23;6.78;;;1.50;;
3465;SDS011;1747;48.884;9.160;2023-01-10T03:46:12;3.40;;;1.25;;
3465;SDS011;1747;48.884;9.160;2023-01-10T03:48:45;1.98;;;1.52;;
3465;SDS011;1747;48.884;9.160;2023-01-10T03:51:15;5.18;;;1.60;;
3465;SDS011;1747;48.884;9.160;2023-01-10T03:53:43;4.47;;;1.50;;
3465;SDS011;1747;48.884;9.160;2023-01-10T03:56:12;4.70;;;1.30;;
3465;SDS011;1747;48.884;9.160;2023-01-10T03:58:39;3.13;;;0.93;;
3465;SDS011;1747;48.884;9.160;2023-01-10T04:01:06;3.78;;;1.33;;
3465;SDS011;1747;48.884;9.160;2023-01-10T04:03:33;4.22;;;1.65;;
3465;SDS011;1747;48.884;9.160;2023-01-10T04:06:00;1.40;;;1.17;;
3465;SDS011;1747;48.884;9.160;2023-01-10T04:08:29;2.85;;;1.33;;
3465;SDS011;1747;48.884;9.160;2023-01-10T04:10:56;2.08;;;1.45;;
3465;SDS011;1747;48.884;9.160;2023-01-10T04:13:23;3.13;;;1.25;;
3465;SDS011;1747;48.884;9.160;2023-01-10T04:15:49;5.20;;;1.35;;
3465;SDS011;1747;48.884;9.160;2023-01-10T04:18:16;3.75;;;1.05;;
3465;SDS011;1747;48.884;9.160;2023-01-10T04:20:43;3.40;;;1.08;;
3465;SDS011;1747;48.884;9.160;2023-01-10T04:23:10;3.80;;;1.23;;
3465;SDS011;1747;48.884;9.160;2023-01-10T04:25:38;2.13;;;1.30;;
3465;SDS011;1747;48.884;9.160;2023-01-10T04:28:05;1.50;;;1.10;;
3465;SDS011;1747;48.884;9.160;2023-01-10T04:30:32;3.10;;;1.77;;
3465;SDS011;1747;48.884;9.160;2023-01-10T04:32:59;2.58;;;1.20;;
3465;SDS011;1747;48.884;9.160;2023-01-10T04:35:25;3.05;;;1.40;;
3465;SDS011;1747;48.884;9.160;2023-01-10T04:37:52;7.93;;;1.55;;
3465;SDS011;1747;48.884;9.160;2023-01-10T04:40:19;3.28;;;1.50;;
3465;SDS011;1747;48.884;9.160;2023-01-10T04:42:48;7.55;;;1.88;;
3465;SDS011;1747;48.884;9.160;2023-01-10T04:45:15;4.43;;;2.20;;
3465;SDS011;1747;48.884;9.160;2023-01-10T04:47:47;10.35;;;1.92;;
3465;SDS011;1747;48.884;9.160;2023-01-10T04:50:15;3.33;;;1.20;;
3465;SDS011;1747;48.884;9.160;2023-01-10T04:52:42;3.42;;;1.50;;
3465;SDS011;1747;48.884;9.160;2023-01-10T04:55:09;8.32;;;2.00;;
3465;SDS011;1747;48.884;9.160;2023-01-10T04:57:36;5.07;;;1.85;;
3465;SDS011;1747;48.884;9.160;2023-01-10T05:00:04;6.72;;;1.70;;
3465;SDS011;1747;48.884;9.160;2023-01-10T05:02:32;6.88;;;1.77;;
3465;SDS011;1747;48.884;9.160;2023-01-10T05:04:59;6.50;;;1.58;;
3465;SDS011;1747;48.884;9.160;2023-01-10T05:07:25;5.80;;;2.40;;
3465;SDS011;1747;48.884;9.160;2023-01-10T05:09:52;7.82;;;2.00;;
3465;SDS011;1747;48.884;9.160;2023-01-10T05:12:19;6.72;;;1.98;;
3465;SDS011;1747;48.884;9.160;2023-01-10T05:14:46;8.30;;;2.00;;
3465;SDS011;1747;48.884;9.160;2023-01-10T05:17:14;4.40;;;1.58;;
3465;SDS011;1747;48.884;9.160;2023-01-10T05:19:41;10.02;;;1.90;;
3465;SDS011;1747;48.884;9.160;2023-01-10T05:22:08;6.22;;;1.80;;
3465;SDS011;1747;48.884;9.160;2023-01-10T05:24:34;5.43;;;1.90;;
3465;SDS011;1747;48.884;9.160;2023-01-10T05:27:01;7.22;;;1.98;;
3465;SDS011;1747;48.884;9.160;2023-01-10T05:29:28;8.07;;;2.05;;
3465;SDS011;1747;48.884;9.160;2023-01-10T05:31:55;7.22;;;1.83;;
3465;SDS011;1747;48.884;9.160;2023-01-10T05:34:23;3.70;;;1.40;;
3465;SDS011;1747;48.884;9.160;2023-01-10T05:36:50;7.15;;;1.42;;
3465;SDS011;1747;48.884;9.160;2023-01-10T05:39:17;2.92;;;1.50;;
3465;SDS011;1747;48.884;9.160;2023-01-10T05:41:45;7.97;;;2.30;;
3465;SDS011;1747;48.884;9.160;2023-01-10T05:44:12;9.52;;;2.53;;
3465;SDS011;1747;48.884;9.160;2023-01-10T05:46:38;7.57;;;1.60;;
3465;SDS011;1747;48.884;9.160;2023-01-10T05:49:05;10.85;;;2.55;;
3465;SDS011;1747;48.884;9.160;2023-01-10T05:51:34;13.55;;;2.20;;
3465;SDS011;1747;48.884;9.160;2023-01-10T05:54:00;9.20;;;1.52;;
3465;SDS011;1747;48.884;9.160;2023-01-10T05:56:27;7.22;;;1.63;;
3465;SDS011;1747;48.884;9.160;2023-01-10T05:58:55;8.45;;;1.90;;
3465;SDS011;1747;48.884;9.160;2023-01-10T06:01:22;8.30;;;1.17;;
3465;SDS011;1747;48.884;9.160;2023-01-10T06:03:49;5.63;;;1.58;;
3465;SDS011;1747;48.884;9.160;2023-01-10T06:06:15;8.88;;;1.70;;
3465;SDS011;1747;48.884;9.160;2023-01-10T06:08:44;9.63;;;1.60;;
3465;SDS011;1747;48.884;9.160;2023-01-10T06:11:10;10.25;;;2.63;;
3465;SDS011;1747;48.884;9.160;2023-01-10T06:13:37;5.65;;;1.70;;
3465;SDS011;1747;48.884;9.160;2023-01-10T06:16:04;8.98;;;1.65;;
3465;SDS011;1747;48.884;9.160;2023-01-10T06:18:31;8.40;;;1.50;;
3465;SDS011;1747;48.884;9.160;2023-01-10T06:20:58;8.82;;;1.55;;
3465;SDS011;1747;48.884;9.160;2023-01-10T06:23:25;10.77;;;1.45;;
3465;SDS011;1747;48.884;9.160;2023-01-10T06:25:55;2.90;;;1.23;;
3465;SDS011;1747;48.884;9.160;2023-01-10T06:28:22;7.38;;;1.42;;
3465;SDS011;1747;48.884;9.160;2023-01-10T06:30:49;9.55;;;1.30;;
3465;SDS011;1747;48.884;9.160;2023-01-10T06:33:16;8.20;;;1.35;;
3465;SDS011;1747;48.884;9.160;2023-01-10T06:35:42;5.20;;;1.10;;
3465;SDS011;1747;48.884;9.160;2023-01-10T06:38:10;10.27;;;1.55;;
3465;SDS011;1747;48.884;9.160;2023-01-10T06:40:37;3.25;;;1.38;;
3465;SDS011;1747;48.884;9.160;2023-01-10T06:43:05;7.25;;;1.27;;
3465;SDS011;1747;48.884;9.160;2023-01-10T06:45:32;4.95;;;1.17;;
3465;SDS011;1747;48.884;9.160;2023-01-10T06:47:59;8.70;;;1.70;;
3465;SDS011;1747;48.884;9.160;2023-01-10T06:50:26;9.77;;;1.35;;
3465;SDS011;1747;48.884;9.160;2023-01-10T06:52:53;6.82;;;1.30;;
3465;SDS011;1747;48.884;9.160;2023-01-10T06:55:22;5.90;;;1.35;;
3465;SDS011;1747;48.884;9.160;2023-01-10T06:57:53;5.03;;;1.23;;
3465;SDS011;1747;48.884;9.160;2023-01-10T07:00:22;9.38;;;1.42;;
3465;SDS011;1747;48.884;9.160;2023-01-10T07:02:51;5.07;;;1.38;;
3465;SDS011;1747;48.884;9.160;2023-01-10T07:05:20;7.97;;;1.45;;
3465;SDS011;1747;48.884;9.160;2023-01-10T07:07:47;7.80;;;1.75;;
3465;SDS011;1747;48.884;9.160;2023-01-10T07:10:14;3.13;;;1.10;;
3465;SDS011;1747;48.884;9.160;2023-01-10T07:12:41;9.02;;;1.67;;
3465;SDS011;1747;48.884;9.160;2023-01-10T07:15:08;9.65;;;1.48;;
3465;SDS011;1747;48.884;9.160;2023-01-10T07:17:38;7.20;;;1.85;;
3465;SDS011;1747;48.884;9.160;2023-01-10T07:20:05;6.85;;;1.92;;
3465;SDS011;1747;48.884;9.160;2023-01-10T07:22:32;10.35;;;1.98;;
3465;SDS011;1747;48.884;9.160;2023-01-10T07:24:59;4.45;;;1.40;;
3465;SDS011;1747;48.884;9.160;2023-01-10T07:27:28;9.57;;;1.80;;
3465;SDS011;1747;48.884;9.160;2023-01-10T07:29:55;7.18;;;1.40;;
3465;SDS011;1747;48.884;9.160;2023-01-10T07:32:22;10.23;;;1.80;;
3465;SDS011;1747;48.884;9.160;2023-01-10T07:34:51;7.80;;;1.52;;
3465;SDS011;1747;48.884;9.160;2023-01-10T07:37:18;8.15;;;1.63;;
3465;SDS011;1747;48.884;9.160;2023-01-10T07:39:45;6.57;;;1.58;;
3465;SDS011;1747;48.884;9.160;2023-01-10T07:42:13;6.25;;;1.73;;
3465;SDS011;1747;48.884;9.160;2023-01-10T07:44:39;12.15;;;2.35;;
3465;SDS011;1747;48.884;9.160;2023-01-10T07:47:06;6.05;;;1.67;;
3465;SDS011;1747;48.884;9.160;2023-01-10T07:49:33;5.13;;;1.45;;
3465;SDS011;1747;48.884;9.160;2023-01-10T07:52:01;6.93;;;2.08;;
3465;SDS011;1747;48.884;9.160;2023-01-10T07:54:29;10.18;;;2.03;;
3465;SDS011;1747;48.884;9.160;2023-01-10T07:56:55;5.18;;;1.52;;
3465;SDS011;1747;48.884;9.160;2023-01-10T07:59:22;6.05;;;1.67;;
3465;SDS011;1747;48.884;9.160;2023-01-10T08:01:49;4.43;;;1.42;;
3465;SDS011;1747;48.884;9.160;2023-01-10T08:04:18;5.93;;;1.63;;
3465;SDS011;1747;48.884;9.160;2023-01-10T08:06:44;7.75;;;1.90;;
3465;SDS011;1747;48.884;9.160;2023-01-10T08:09:13;9.13;;;2.05;;
3465;SDS011;1747;48.884;9.160;2023-01-10T08:11:40;10.50;;;2.00;;
3465;SDS011;1747;48.884;9.160;2023-01-10T08:14:07;7.40;;;1.50;;
3465;SDS011;1747;48.884;9.160;2023-01-10T08:16:34;10.95;;;2.22;;
3465;SDS011;1747;48.884;9.160;2023-01-10T08:19:01;6.32;;;1.42;;
3465;SDS011;1747;48.884;9.160;2023-01-10T08:21:27;7.45;;;1.50;;
3465;SDS011;1747;48.884;9.160;2023-01-10T08:23:54;12.52;;;2.35;;
3465;SDS011;1747;48.884;9.160;2023-01-10T08:26:22;6.60;;;1.60;;
3465;SDS011;1747;48.884;9.160;2023-01-10T08:28:49;6.43;;;1.95;;
3465;SDS011;1747;48.884;9.160;2023-01-10T08:31:16;10.07;;;1.75;;
3465;SDS011;1747;48.884;9.160;2023-01-10T08:33:43;6.93;;;1.73;;
3465;SDS011;1747;48.884;9.160;2023-01-10T08:36:13;11.02;;;1.95;;
3465;SDS011;1747;48.884;9.160;2023-01-10T08:38:41;8.10;;;1.90;;
3465;SDS011;1747;48.884;9.160;2023-01-10T08:41:08;7.05;;;1.55;;
3465;SDS011;1747;48.884;9.160;2023-01-10T08:43:36;8.00;;;1.90;;
3465;SDS011;1747;48.884;9.160;2023-01-10T08:46:04;8.27;;;1.67;;
3465;SDS011;1747;48.884;9.160;2023-01-10T08:48:31;9.63;;;1.88;;
3465;SDS011;1747;48.884;9.160;2023-01-10T08:50:58;7.43;;;1.90;;
3465;SDS011;1747;48.884;9.160;2023-01-10T08:53:30;8.13;;;2.03;;
3465;SDS011;1747;48.884;9.160;2023-01-10T08:55:56;7.32;;;2.15;;
3465;SDS011;1747;48.884;9.160;2023-01-10T08:58:23;5.72;;;2.30;;
3465;SDS011;1747;48.884;9.160;2023-01-10T09:00:51;8.30;;;2.28;;
3465;SDS011;1747;48.884;9.160;2023-01-10T09:03:18;10.00;;;2.00;;
3465;SDS011;1747;48.884;9.160;2023-01-10T09:05:45;10.30;;;2.17;;
3465;SDS011;1747;48.884;9.160;2023-01-10T09:08:12;9.13;;;1.75;;
3465;SDS011;1747;48.884;9.160;2023-01-10T09:10:38;9.48;;;1.98;;
3465;SDS011;1747;48.884;9.160;2023-01-10T09:13:05;4.13;;;1.65;;
3465;SDS011;1747;48.884;9.160;2023-01-10T09:15:34;7.13;;;2.30;;
3465;SDS011;1747;48.884;9.160;2023-01-10T09:18:04;8.68;;;2.13;;
3465;SDS011;1747;48.884;9.160;2023-01-10T09:20:33;7.85;;;1.90;;
3465;SDS011;1747;48.884;9.160;2023-01-10T09:23:03;8.93;;;2.30;;
3465;SDS011;1747;48.884;9.160;2023-01-10T09:25:30;8.80;;;2.40;;
3465;SDS011;1747;48.884;9.160;2023-01-10T09:27:57;5.68;;;1.60;;
3465;SDS011;1747;48.884;9.160;2023-01-10T09:30:25;6.32;;;1.55;;
3465;SDS011;1747;48.884;9.160;2023-01-10T09:32:53;7.28;;;1.75;;
3465;SDS011;1747;48.884;9.160;2023-01-10T09:35:22;13.20;;;1.88;;
3465;SDS011;1747;48.884;9.160;2023-01-10T09:37:52;5.45;;;1.50;;
3465;SDS011;1747;48.884;9.160;2023-01-10T09:40:23;5.88;;;1.75;;
3465;SDS011;1747;48.884;9.160;2023-01-10T09:43:01;8.13;;;1.85;;
3465;SDS011;1747;48.884;9.160;2023-01-10T09:45:36;7.72;;;1.35;;
3465;SDS011;1747;48.884;9.160;2023-01-10T09:48:12;6.50;;;1.70;;
3465;SDS011;1747;48.884;9.160;2023-01-10T09:50:48;8.30;;;1.52;;
3465;SDS011;1747;48.884;9.160;2023-01-10T09:53:30;8.68;;;1.95;;
3465;SDS011;1747;48.884;9.160;2023-01-10T09:55:59;4.45;;;1.40;;
3465;SDS011;1747;48.884;9.160;2023-01-10T09:58:28;4.13;;;1.35;;
3465;SDS011;1747;48.884;9.160;2023-01-10T10:00:58;5.60;;;1.33;;
3465;SDS011;1747;48.884;9.160;2023-01-10T10:03:29;4.80;;;1.55;;
3465;SDS011;1747;48.884;9.160;2023-01-10T10:06:01;6.03;;;1.33;;
3465;SDS011;1747;48.884;9.160;2023-01-10T10:08:28;4.78;;;1.38;;
3465;SDS011;1747;48.884;9.160;2023-01-10T10:11:01;3.70;;;1.52;;
3465;SDS011;1747;48.884;9.160;2023-01-10T10:13:39;5.05;;;1.58;;
3465;SDS011;1747;48.884;9.160;2023-01-10T10:16:16;5.03;;;1.40;;
3465;SDS011;1747;48.884;9.160;2023-01-10T10:18:54;3.78;;;1.27;;
3465;SDS011;1747;48.884;9.160;2023-01-10T10:21:31;2.97;;;0.93;;
3465;SDS011;1747;48.884;9.160;2023-01-10T10:24:12;5.45;;;1.38;;
3465;SDS011;1747;48.884;9.160;2023-01-10T10:26:55;3.97;;;1.13;;
3465;SDS011;1747;48.884;9.160;2023-01-10T10:35:15;10.77;;;1.33;;
3465;SDS011;1747;48.884;9.160;2023-01-10T10:37:52;5.25;;;1.20;;
3465;SDS011;1747;48.884;9.160;2023-01-10T10:40:24;5.90;;;1.60;;
3465;SDS011;1747;48.884;9.160;2023-01-10T10:42:54;3.50;;;1.40;;
3465;SDS011;1747;48.884;9.160;2023-01-10T10:45:25;4.78;;;1.30;;
3465;SDS011;1747;48.884;9.160;2023-01-10T10:47:58;7.55;;;1.42;;
3465;SDS011;1747;48.884;9.160;2023-01-10T10:50:30;6.88;;;1.23;;
3465;SDS011;1747;48.884;9.160;2023-01-10T10:52:59;5.43;;;1.30;;
3465;SDS011;1747;48.884;9.160;2023-01-10T10:55:28;4.72;;;1.50;;
3465;SDS011;1747;48.884;9.160;2023-01-10T10:58:00;4.85;;;1.73;;
3465;SDS011;1747;48.884;9.160;2023-01-10T11:00:28;5.30;;;1.30;;
3465;SDS011;1747;48.884;9.160;2023-01-10T11:02:57;8.35;;;1.48;;
3465;SDS011;1747;48.884;9.160;2023-01-10T11:05:30;4.50;;;1.15;;
3465;SDS011;1747;48.884;9.160;2023-01-10T11:08:03;3.85;;;1.58;;
3465;SDS011;1747;48.884;9.160;2023-01-10T11:10:34;8.32;;;1.55;;
3465;SDS011;1747;48.884;9.160;2023-01-10T11:13:03;4.60;;;1.23;;
3465;SDS011;1747;48.884;9.160;2023-01-10T11:15:38;6.53;;;1.55;;
3465;SDS011;1747;48.884;9.160;2023-01-10T11:18:09;4.40;;;1.00;;
3465;SDS011;1747;48.884;9.160;2023-01-10T11:20:45;5.50;;;1.30;;
3465;SDS011;1747;48.884;9.160;2023-01-10T11:23:21;6.70;;;1.10;;
3465;SDS011;1747;48.884;9.160;2023-01-10T11:25:50;4.07;;;0.90;;
3465;SDS011;1747;48.884;9.160;2023-01-10T11:28:17;2.58;;;0.80;;
3465;SDS011;1747;48.884;9.160;2023-01-10T11:30:49;5.43;;;1.00;;
3465;SDS011;1747;48.884;9.160;2023-01-10T11:33:18;4.43;;;1.20;;
3465;SDS011;1747;48.884;9.160;2023-01-10T11:35:54;5.20;;;1.10;;
3465;SDS011;1747;48.884;9.160;2023-01-10T11:38:24;4.05;;;1.30;;
3465;SDS011;1747;48.884;9.160;2023-01-10T11:40:55;4.07;;;1.10;;
3465;SDS011;1747;48.884;9.160;2023-01-10T11:43:26;5.35;;;0.82;;
3465;SDS011;1747;48.884;9.160;2023-01-10T11:45:55;5.88;;;1.63;;
3465;SDS011;1747;48.884;9.160;2023-01-10T11:48:26;6.32;;;1.00;;
3465;SDS011;1747;48.884;9.160;2023-01-10T11:50:59;6.85;;;1.10;;
3465;SDS011;1747;48.884;9.160;2023-01-10T11:53:36;5.90;;;1.40;;
3465;SDS011;1747;48.884;9.160;2023-01-10T11:56:05;6.32;;;1.13;;
3465;SDS011;1747;48.884;9.160;2023-01-10T11:58:35;6.13;;;1.17;;
3465;SDS011;1747;48.884;9.160;2023-01-10T12:01:04;6.82;;;1.50;;
3465;SDS011;1747;48.884;9.160;2023-01-10T12:03:33;4.13;;;1.55;;
3465;SDS011;1747;48.884;9.160;2023-01-10T12:06:03;3.65;;;1.17;;
3465;SDS011;1747;48.884;9.160;2023-01-10T12:08:34;5.20;;;0.98;;
3465;SDS011;1747;48.884;9.160;2023-01-10T12:11:04;6.15;;;1.10;;
3465;SDS011;1747;48.884;9.160;2023-01-10T12:13:42;3.85;;;1.02;;
3465;SDS011;1747;48.884;9.160;2023-01-10T12:16:17;5.85;;;1.45;;
3465;SDS011;1747;48.884;9.160;2023-01-10T12:18:47;3.78;;;0.98;;
3465;SDS011;1747;48.884;9.160;2023-01-10T12:21:16;8.20;;;1.50;;
3465;SDS011;1747;48.884;9.160;2023-01-10T12:23:47;3.50;;;0.80;;
3465;SDS011;1747;48.884;9.160;2023-01-10T12:26:17;3.40;;;1.42;;
3465;SDS011;1747;48.884;9.160;2023-01-10T12:28:46;5.07;;;1.02;;
3465;SDS011;1747;48.884;9.160;2023-01-10T12:31:16;6.00;;;1.10;;
3465;SDS011;1747;48.884;9.160;2023-01-10T12:33:47;4.15;;;1.30;;
3465;SDS011;1747;48.884;9.160;2023-01-10T12:36:27;8.57;;;1.00;;
3465;SDS011;1747;48.884;9.160;2023-01-10T12:39:12;5.05;;;1.10;;
3465;SDS011;1747;48.884;9.160;2023-01-10T12:41:44;6.22;;;1.50;;
3465;SDS011;1747;48.884;9.160;2023-01-10T12:44:35;3.72;;;1.10;;
3465;SDS011;1747;48.884;9.160;2023-01-10T12:47:10;3.92;;;1.15;;
3465;SDS011;1747;48.884;9.160;2023-01-10T12:49:43;5.55;;;1.20;;
3465;SDS011;1747;48.884;9.160;2023-01-10T12:52:15;5.95;;;1.35;;
3465;SDS011;1747;48.884;9.160;2023-01-10T12:54:47;3.53;;;1.08;;
3465;SDS011;1747;48.884;9.160;2023-01-10T12:57:19;2.58;;;0.90;;
3465;SDS011;1747;48.884;9.160;2023-01-10T12:59:49;4.65;;;1.10;;
3465;SDS011;1747;48.884;9.160;2023-01-10T13:02:18;5.03;;;1.20;;
3465;SDS011;1747;48.884;9.160;2023-01-10T13:04:48;4.50;;;1.17;;
3465;SDS011;1747;48.884;9.160;2023-01-10T13:07:18;5.40;;;1.05;;
3465;SDS011;1747;48.884;9.160;2023-01-10T13:09:47;6.30;;;1.35;;
3465;SDS011;1747;48.884;9.160;2023-01-10T13:12:17;3.70;;;1.15;;
3465;SDS011;1747;48.884;9.160;2023-01-10T13:14:50;3.95;;;0.98;;
3465;SDS011;1747;48.884;9.160;2023-01-10T13:17:25;5.38;;;1.08;;
3465;SDS011;1747;48.884;9.160;2023-01-10T13:23:10;3.42;;;0.98;;
3465;SDS011;1747;48.884;9.160;2023-01-10T13:25:40;8.88;;;1.10;;
3465;SDS011;1747;48.884;9.160;2023-01-10T13:28:23;2.95;;;0.80;;
3465;SDS011;1747;48.884;9.160;2023-01-10T13:30:53;3.03;;;0.93;;
3465;SDS011;1747;48.884;9.160;2023-01-10T13:33:22;4.85;;;1.02;;
3465;SDS011;1747;48.884;9.160;2023-01-10T13:35:50;4.45;;;1.00;;
3465;SDS011;1747;48.884;9.160;2023-01-10T13:38:20;4.35;;;0.93;;
3465;SDS011;1747;48.884;9.160;2023-01-10T13:41:00;4.07;;;0.80;;
3465;SDS011;1747;48.884;9.160;2023-01-10T13:46:45;3.05;;;0.77;;
3465;SDS011;1747;48.884;9.160;2023-01-10T13:49:22;4.70;;;0.70;;
3465;SDS011;1747;48.884;9.160;2023-01-10T13:55:27;4.43;;;1.15;;
3465;SDS011;1747;48.884;9.160;2023-01-10T13:57:58;3.08;;;0.70;;
3465;SDS011;1747;48.884;9.160;2023-01-10T14:00:40;3.15;;;0.68;;
3465;SDS011;1747;48.884;9.160;2023-01-10T14:03:41;5.13;;;1.20;;
3465;SDS011;1747;48.884;9.160;2023-01-10T14:06:15;4.50;;;0.90;;
3465;SDS011;1747;48.884;9.160;2023-01-10T14:08:58;3.40;;;1.10;;
3465;SDS011;1747;48.884;9.160;2023-01-10T14:11:27;5.95;;;1.10;;
3465;SDS011;1747;48.884;9.160;2023-01-10T14:13:59;5.70;;;0.85;;
3465;SDS011;1747;48.884;9.160;2023-01-10T14:16:28;4.65;;;0.90;;
3465;SDS011;1747;48.884;9.160;2023-01-10T14:18:59;4.18;;;1.00;;
3465;SDS011;1747;48.884;9.160;2023-01-10T14:21:27;5.03;;;0.95;;
3465;SDS011;1747;48.884;9.160;2023-01-10T14:23:56;3.10;;;0.90;;
3465;SDS011;1747;48.884;9.160;2023-01-10T14:26:25;3.47;;;1.10;;
3465;SDS011;1747;48.884;9.160;2023-01-10T14:28:57;2.20;;;0.80;;
3465;SDS011;1747;48.884;9.160;2023-01-10T14:31:26;4.50;;;1.15;;
3465;SDS011;1747;48.884;9.160;2023-01-10T14:33:55;1.90;;;0.80;;
3465;SDS011;1747;48.884;9.160;2023-01-10T14:36:26;7.65;;;1.10;;
3465;SDS011;1747;48.884;9.160;2023-01-10T14:38:57;5.90;;;0.98;;
3465;SDS011;1747;48.884;9.160;2023-01-10T14:41:28;4.20;;;0.95;;
3465;SDS011;1747;48.884;9.160;2023-01-10T14:44:17;3.65;;;0.68;;
3465;SDS011;1747;48.884;9.160;2023-01-10T14:46:49;5.20;;;0.90;;
3465;SDS011;1747;48.884;9.160;2023-01-10T14:49:18;6.05;;;1.73;;
3465;SDS011;1747;48.884;9.160;2023-01-10T14:51:48;6.28;;;1.10;;
3465;SDS011;1747;48.884;9.160;2023-01-10T14:54:16;3.88;;;0.82;;
3465;SDS011;1747;48.884;9.160;2023-01-10T14:56:46;4.40;;;1.60;;
3465;SDS011;1747;48.884;9.160;2023-01-10T14:59:19;5.15;;;0.82;;
3465;SDS011;1747;48.884;9.160;2023-01-10T15:01:49;2.17;;;0.70;;
3465;SDS011;1747;48.884;9.160;2023-01-10T15:04:18;3.85;;;1.05;;
3465;SDS011;1747;48.884;9.160;2023-01-10T15:06:51;3.88;;;1.00;;
3465;SDS011;1747;48.884;9.160;2023-01-10T15:09:19;3.80;;;0.80;;
3465;SDS011;1747;48.884;9.160;2023-01-10T15:11:46;4.15;;;0.60;;
3465;SDS011;1747;48.884;9.160;2023-01-10T15:14:14;5.75;;;4.97;;
3465;SDS011;1747;48.884;9.160;2023-01-10T15:16:43;3.85;;;0.82;;
3465;SDS011;1747;48.884;9.160;2023-01-10T15:19:12;1.95;;;0.90;;
3465;SDS011;1747;48.884;9.160;2023-01-10T15:21:43;4.38;;;1.10;;
3465;SDS011;1747;48.884;9.160;2023-01-10T15:27:10;2.30;;;0.80;;
3465;SDS011;1747;48.884;9.160;2023-01-10T15:29:39;3.97;;;1.08;;
3465;SDS011;1747;48.884;9.160;2023-01-10T15:32:09;5.22;;;1.27;;
3465;SDS011;1747;48.884;9.160;2023-01-10T15:34:37;4.93;;;1.65;;
3465;SDS011;1747;48.884;9.160;2023-01-10T15:37:06;5.50;;;1.15;;
3465;SDS011;1747;48.884;9.160;2023-01-10T15:39:44;5.65;;;0.93;;
3465;SDS011;1747;48.884;9.160;2023-01-10T15:42:12;1.85;;;0.70;;
3465;SDS011;1747;48.884;9.160;2023-01-10T15:44:40;4.70;;;1.15;;
3465;SDS011;1747;48.884;9.160;2023-01-10T15:47:31;4.60;;;1.00;;
3465;SDS011;1747;48.884;9.160;2023-01-10T15:50:02;3.28;;;1.02;;
3465;SDS011;1747;48.884;9.160;2023-01-10T15:52:45;3.38;;;1.00;;
3465;SDS011;1747;48.884;9.160;2023-01-10T15:55:33;3.00;;;1.52;;